Time;durP1;ratioP1;P1;durP2;ratioP2;P2;SDS_P1;SDS_P2;PMS_P1;PMS_P2;Temp;Humidity;BMP_temperature;BMP_pressure;BME280_temperature;BME280_humidity;BME280_pressure;Samples;Min_cycle;Max_cycle;Signal;HPM_P1;HPM_P2
2023/05/12 00:01:29;;;;;;;;;;;23.00;57.80;;;;;;1610259;72;1242;-69
2023/05/12 00:03:31;;;;;;;;;;;22.90;57.80;;;;;;1609961;73;760;-70
2023/05/12 00:05:32;;;;;;;;;;;22.90;58.00;;;;;;1608788;72;774;-71
2023/05/12 00:07:35;;;;;;;;;;;22.80;58.00;;;;;;1608793;72;1936;-70
2023/05/12 00:09:37;;;;;;;;;;;22.90;58.10;;;;;;1606811;72;1428;-69
2023/05/12 00:11:38;;;;;;;;;;;22.80;58.10;;;;;;1608759;72;1159;-71
2023/05/12 00:13:40;;;;;;;;;;;22.80;58.10;;;;;;1606228;72;775;-70
2023/05/12 00:15:42;;;;;;;;;;;22.80;57.90;;;;;;1602160;72;755;-71
2023/05/12 00:17:44;;;;;;;;;;;22.80;58.00;;;;;;1615759;72;752;-71
2023/05/12 00:19:47;;;;;;;;;;;22.70;57.90;;;;;;1610295;72;774;-69
2023/05/12 00:21:49;;;;;;;;;;;22.80;57.90;;;;;;1608415;72;1238;-70
2023/05/12 00:23:50;;;;;;;;;;;22.70;58.00;;;;;;1576349;74;1406;-70
2023/05/12 00:25:52;;;;;;;;;;;22.70;57.80;;;;;;1580862;74;798;-70
2023/05/12 00:27:54;;;;;;;;;;;22.80;57.80;;;;;;1575492;75;1938;-69
2023/05/12 00:29:57;;;;;;;;;;;22.80;57.70;;;;;;1548665;76;859;-70
2023/05/12 00:31:58;;;;;;;;;;;22.80;57.80;;;;;;1555446;75;1152;-68
2023/05/12 00:34:00;;;;;;;;;;;22.80;57.80;;;;;;1569048;74;791;-67
2023/05/12 00:36:03;;;;;;;;;;;22.80;57.60;;;;;;1547498;75;743;-69
2023/05/12 00:38:04;;;;;;;;;;;22.90;57.60;;;;;;1538530;75;1393;-68
2023/05/12 00:40:07;;;;;;;;;;;22.90;57.50;;;;;;1575640;74;742;-68
2023/05/12 00:42:10;;;;;;;;;;;22.80;57.30;;;;;;1566404;74;807;-68
2023/05/12 00:44:12;;;;;;;;;;;22.90;57.40;;;;;;1552586;75;617;-67
2023/05/12 00:46:14;;;;;;;;;;;23.00;57.50;;;;;;1564365;75;756;-68
2023/05/12 00:48:16;;;;;;;;;;;23.00;57.30;;;;;;1572703;75;1938;-69
2023/05/12 00:50:18;;;;;;;;;;;23.00;57.20;;;;;;1563769;75;1099;-68
2023/05/12 00:52:20;;;;;;;;;;;23.00;57.20;;;;;;1565841;75;1443;-68
2023/05/12 00:54:22;;;;;;;;;;;23.00;57.20;;;;;;1567728;75;677;-68
2023/05/12 00:56:23;;;;;;;;;;;23.00;57.10;;;;;;1573089;75;777;-69
2023/05/12 00:58:26;;;;;;;;;;;23.00;57.10;;;;;;1569481;75;768;-69
2023/05/12 01:00:27;;;;;;;;;;;23.00;57.00;;;;;;1566312;75;1158;-69
2023/05/12 01:02:29;;;;;;;;;;;23.00;56.90;;;;;;1562898;75;785;-68
2023/05/12 01:04:31;;;;;;;;;;;22.90;57.10;;;;;;1568886;75;756;-69
2023/05/12 01:06:47;;;;;;;;;;;23.00;57.10;;;;;;1564338;75;1402;-70
2023/05/12 01:08:49;;;;;;;;;;;23.00;57.10;;;;;;1570510;74;1959;-70
2023/05/12 01:10:51;;;;;;;;;;;23.00;57.20;;;;;;1566241;75;1260;-69
2023/05/12 01:12:52;;;;;;;;;;;23.00;57.60;;;;;;1569994;75;687;-69
2023/05/12 01:14:55;;;;;;;;;;;23.00;57.70;;;;;;1569450;75;691;-69
2023/05/12 01:16:58;;;;;;;;;;;22.90;57.80;;;;;;1569985;75;760;-68
2023/05/12 01:19:00;;;;;;;;;;;23.00;57.70;;;;;;1573260;75;774;-68
2023/05/12 01:21:02;;;;;;;;;;;22.90;57.60;;;;;;1566061;75;1409;-68
2023/05/12 01:23:04;;;;;;;;;;;22.90;57.70;;;;;;1572331;75;754;-70
2023/05/12 01:25:07;;;;;;;;;;;22.90;57.60;;;;;;1556858;75;756;-69
2023/05/12 01:27:09;;;;;;;;;;;22.90;57.70;;;;;;1573147;75;1097;-67
2023/05/12 01:29:11;;;;;;;;;;;22.90;57.60;;;;;;1572856;75;1927;-67
2023/05/12 01:31:13;;;;;;;;;;;22.90;57.50;;;;;;1559817;75;1197;-67
2023/05/12 01:33:15;;;;;;;;;;;22.90;57.40;;;;;;1556078;75;800;-67
2023/05/12 01:35:17;;;;;;;;;;;22.90;57.60;;;;;;1571154;75;1574;-68
2023/05/12 01:37:19;;;;;;;;;;;22.80;57.40;;;;;;1564859;75;756;-67
2023/05/12 01:39:21;;;;;;;;;;;22.80;57.60;;;;;;1570860;75;777;-69
2023/05/12 01:41:23;;;;;;;;;;;22.80;57.80;;;;;;1560922;75;1195;-68
2023/05/12 01:43:25;;;;;;;;;;;22.80;57.40;;;;;;1556600;75;748;-68
2023/05/12 01:45:26;;;;;;;;;;;22.80;57.30;;;;;;1559249;75;788;-68
2023/05/12 01:47:28;;;;;;;;;;;22.90;57.40;;;;;;1572912;74;1934;-69
2023/05/12 01:49:30;;;;;;;;;;;22.90;57.20;;;;;;1562767;75;1395;-70
2023/05/12 01:51:32;;;;;;;;;;;22.90;57.10;;;;;;1560041;75;1166;-69
2023/05/12 01:53:34;;;;;;;;;;;22.90;57.10;;;;;;1568339;75;763;-70
2023/05/12 01:55:36;;;;;;;;;;;23.00;57.00;;;;;;1569092;75;775;-69
2023/05/12 01:57:38;;;;;;;;;;;22.90;57.00;;;;;;1575308;74;813;-69
2023/05/12 01:59:39;;;;;;;;;;;23.00;56.90;;;;;;1547140;75;764;-68
2023/05/12 02:01:41;;;;;;;;;;;22.90;56.90;;;;;;1550567;75;1198;-67
2023/05/12 02:03:43;;;;;;;;;;;22.90;57.30;;;;;;1576742;74;1649;-67
2023/05/12 02:05:45;;;;;;;;;;;22.90;57.40;;;;;;1573677;74;754;-67
2023/05/12 02:07:47;;;;;;;;;;;22.90;57.50;;;;;;1575128;74;1938;-68
2023/05/12 02:09:49;;;;;;;;;;;22.90;57.70;;;;;;1575381;74;746;-68
2023/05/12 02:11:51;;;;;;;;;;;22.90;57.70;;;;;;1576568;74;1232;-68
2023/05/12 02:13:53;;;;;;;;;;;22.90;57.80;;;;;;1576129;74;789;-68
2023/05/12 02:15:55;;;;;;;;;;;22.90;57.60;;;;;;1576588;74;1379;-68
2023/05/12 02:17:57;;;;;;;;;;;22.90;57.80;;;;;;1574913;74;775;-67
2023/05/12 02:19:59;;;;;;;;;;;22.80;57.40;;;;;;1576258;74;786;-68
2023/05/12 02:22:01;;;;;;;;;;;22.90;57.70;;;;;;1576044;74;1090;-67
2023/05/12 02:24:03;;;;;;;;;;;22.90;57.80;;;;;;1575926;74;773;-68
2023/05/12 02:26:05;;;;;;;;;;;22.90;57.70;;;;;;1582181;74;666;-67
2023/05/12 02:28:11;;;;;;;;;;;22.90;57.90;;;;;;1572961;74;1934;-68
2023/05/12 02:30:11;;;;;;;;;;;22.90;57.70;;;;;;1574860;75;1459;-68
2023/05/12 02:32:12;;;;;;;;;;;22.90;57.60;;;;;;1576751;74;735;-68
2023/05/12 02:34:14;;;;;;;;;;;22.90;57.80;;;;;;1578649;74;745;-68
2023/05/12 02:36:16;;;;;;;;;;;22.90;57.80;;;;;;1576608;74;775;-69
2023/05/12 02:38:18;;;;;;;;;;;22.90;57.80;;;;;;1575398;74;645;-69
2023/05/12 02:40:20;;;;;;;;;;;22.80;57.80;;;;;;1569348;74;1177;-69
2023/05/12 02:42:22;;;;;;;;;;;22.80;57.80;;;;;;1576205;74;753;-68
2023/05/12 02:44:24;;;;;;;;;;;22.80;58.00;;;;;;1548782;75;1431;-67
2023/05/12 02:46:26;;;;;;;;;;;22.80;57.90;;;;;;1577242;74;671;-70
2023/05/12 02:48:28;;;;;;;;;;;22.80;57.80;;;;;;1537834;75;1936;-70
2023/05/12 02:50:30;;;;;;;;;;;22.80;57.90;;;;;;1610569;72;1174;-69
2023/05/12 02:52:32;;;;;;;;;;;22.90;58.10;;;;;;1608735;72;751;-69
2023/05/12 02:54:34;;;;;;;;;;;22.90;58.00;;;;;;1606710;72;703;-69
2023/05/12 02:56:35;;;;;;;;;;;22.90;58.00;;;;;;1606511;72;757;-70
2023/05/12 02:58:37;;;;;;;;;;;22.90;57.90;;;;;;1605847;73;1401;-69
2023/05/12 03:00:39;;;;;;;;;;;22.80;57.80;;;;;;1616385;72;1174;-70
2023/05/12 03:02:41;;;;;;;;;;;22.90;57.90;;;;;;1609435;72;736;-69
2023/05/12 03:04:43;;;;;;;;;;;22.90;57.90;;;;;;1615426;72;799;-71
2023/05/12 03:06:45;;;;;;;;;;;22.80;57.90;;;;;;1611922;72;795;-71
2023/05/12 03:08:47;;;;;;;;;;;22.80;57.80;;;;;;1611432;72;1932;-70
2023/05/12 03:10:49;;;;;;;;;;;22.80;57.80;;;;;;1609868;72;1246;-69
2023/05/12 03:12:51;;;;;;;;;;;22.90;58.10;;;;;;1610407;73;1402;-70
2023/05/12 03:14:52;;;;;;;;;;;22.70;58.10;;;;;;1607374;72;790;-69
2023/05/12 03:16:54;;;;;;;;;;;22.80;58.10;;;;;;1607480;72;789;-69
2023/05/12 03:18:56;;;;;;;;;;;22.80;58.30;;;;;;1599947;72;824;-69
2023/05/12 03:20:58;;;;;;;;;;;22.70;58.40;;;;;;1599217;72;1194;-70
2023/05/12 03:23:00;;;;;;;;;;;22.70;58.40;;;;;;1603533;72;733;-70
2023/05/12 03:25:03;;;;;;;;;;;22.70;58.20;;;;;;1612105;72;766;-70
2023/05/12 03:27:05;;;;;;;;;;;22.70;58.10;;;;;;1615302;72;1433;-72
2023/05/12 03:29:07;;;;;;;;;;;22.80;58.00;;;;;;1608177;72;1944;-70
2023/05/12 03:31:09;;;;;;;;;;;22.90;58.20;;;;;;1607929;73;1186;-67
2023/05/12 03:33:11;;;;;;;;;;;22.90;58.10;;;;;;1609102;72;759;-68
2023/05/12 03:35:13;;;;;;;;;;;22.90;58.10;;;;;;1609604;72;784;-69
2023/05/12 03:37:15;;;;;;;;;;;22.80;57.80;;;;;;1610390;72;769;-68
2023/05/12 03:39:17;;;;;;;;;;;22.90;57.90;;;;;;1607470;72;751;-69
2023/05/12 03:41:20;;;;;;;;;;;22.90;57.90;;;;;;1607573;73;1509;-69
2023/05/12 03:43:22;;;;;;;;;;;22.90;57.90;;;;;;1618298;72;761;-70
2023/05/12 03:45:24;;;;;;;;;;;22.90;57.80;;;;;;1622154;72;746;-71
2023/05/12 03:47:26;;;;;;;;;;;22.90;58.10;;;;;;1609662;72;755;-73
2023/05/12 03:49:28;;;;;;;;;;;22.90;58.00;;;;;;1606699;72;1929;-72
2023/05/12 03:51:30;;;;;;;;;;;22.80;57.90;;;;;;1610156;72;1175;-71
2023/05/12 03:53:32;;;;;;;;;;;22.90;58.20;;;;;;1609674;72;696;-72
2023/05/12 03:55:33;;;;;;;;;;;22.80;58.10;;;;;;1608252;72;1480;-73
2023/05/12 03:57:36;;;;;;;;;;;22.80;58.00;;;;;;1604918;72;767;-73
2023/05/12 03:59:38;;;;;;;;;;;22.80;57.80;;;;;;1603282;72;762;-73
2023/05/12 04:01:40;;;;;;;;;;;22.90;57.90;;;;;;1614121;72;1154;-73
2023/05/12 04:03:42;;;;;;;;;;;22.90;57.90;;;;;;1612345;72;814;-69
2023/05/12 04:05:43;;;;;;;;;;;22.90;57.80;;;;;;1610615;72;806;-70
2023/05/12 04:07:45;;;;;;;;;;;22.80;57.60;;;;;;1609176;72;747;-70
2023/05/12 04:09:47;;;;;;;;;;;22.90;57.70;;;;;;1607659;72;1933;-71
2023/05/12 04:11:50;;;;;;;;;;;22.90;57.60;;;;;;1609860;73;1206;-68
2023/05/12 04:13:51;;;;;;;;;;;22.90;57.60;;;;;;1610009;72;785;-69
2023/05/12 04:15:58;;;;;;;;;;;23.00;57.30;;;;;;1606934;72;783;-69
2023/05/12 04:18:00;;;;;;;;;;;23.00;57.10;;;;;;1608288;72;1399;-69
2023/05/12 04:20:03;;;;;;;;;;;23.00;57.00;;;;;;1611460;72;762;-71
2023/05/12 04:22:05;;;;;;;;;;;23.00;57.00;;;;;;1612618;72;1095;-70
2023/05/12 04:24:07;;;;;;;;;;;23.00;57.10;;;;;;1608945;72;1562;-73
2023/05/12 04:26:08;;;;;;;;;;;23.10;57.20;;;;;;1608891;72;807;-70
2023/05/12 04:28:10;;;;;;;;;;;23.10;57.10;;;;;;1609540;72;731;-70
2023/05/12 04:30:12;;;;;;;;;;;23.10;57.10;;;;;;1607971;72;1952;-71
2023/05/12 04:32:14;;;;;;;;;;;23.00;57.10;;;;;;1609824;73;790;-72
2023/05/12 04:34:16;;;;;;;;;;;23.00;57.30;;;;;;1609178;72;754;-71
2023/05/12 04:36:18;;;;;;;;;;;23.00;57.30;;;;;;1607390;72;755;-69
2023/05/12 04:38:20;;;;;;;;;;;23.00;57.30;;;;;;1612988;72;1497;-69
2023/05/12 04:40:22;;;;;;;;;;;23.00;57.30;;;;;;1609883;72;1167;-71
2023/05/12 04:42:23;;;;;;;;;;;22.90;57.30;;;;;;1611883;72;763;-73
2023/05/12 04:44:25;;;;;;;;;;;22.90;57.40;;;;;;1604295;72;684;-70
2023/05/12 04:46:27;;;;;;;;;;;22.90;57.50;;;;;;1608681;73;790;-71
2023/05/12 04:48:29;;;;;;;;;;;23.00;57.50;;;;;;1611007;72;807;-71
2023/05/12 04:50:31;;;;;;;;;;;23.00;57.50;;;;;;1608725;73;1934;-68
2023/05/12 04:52:33;;;;;;;;;;;22.90;57.50;;;;;;1609852;72;756;-69
2023/05/12 04:54:35;;;;;;;;;;;22.90;57.50;;;;;;1606457;72;770;-70
2023/05/12 04:56:37;;;;;;;;;;;22.90;57.50;;;;;;1606499;72;760;-70
2023/05/12 04:58:38;;;;;;;;;;;22.90;57.50;;;;;;1609635;72;725;-71
2023/05/12 05:00:40;;;;;;;;;;;23.00;57.50;;;;;;1610640;72;1171;-71
2023/05/12 05:02:42;;;;;;;;;;;22.90;57.50;;;;;;1612372;72;746;-71
2023/05/12 05:04:44;;;;;;;;;;;22.90;57.80;;;;;;1613572;73;1451;-70
2023/05/12 05:06:46;;;;;;;;;;;22.90;58.00;;;;;;1611875;72;940;-65
2023/05/12 05:08:48;;;;;;;;;;;22.90;57.70;;;;;;1607742;72;1937;-65
2023/05/12 05:10:50;;;;;;;;;;;22.90;56.80;;;;;;1608806;72;1246;-65
2023/05/12 05:12:52;;;;;;;;;;;22.80;55.80;;;;;;1613826;72;767;-69
2023/05/12 05:14:54;;;;;;;;;;;22.80;55.50;;;;;;1610843;72;774;-65
2023/05/12 05:16:56;;;;;;;;;;;22.80;55.50;;;;;;1601760;72;780;-69
2023/05/12 05:18:58;;;;;;;;;;;22.80;54.90;;;;;;1604275;72;1444;-67
2023/05/12 05:21:00;;;;;;;;;;;22.70;54.00;;;;;;1601662;72;1173;-65
2023/05/12 05:23:02;;;;;;;;;;;22.70;53.70;;;;;;1609705;72;784;-66
2023/05/12 05:25:04;;;;;;;;;;;22.70;53.90;;;;;;1609998;73;760;-65
2023/05/12 05:27:06;;;;;;;;;;;22.80;53.80;;;;;;1613473;72;770;-65
2023/05/12 05:29:08;;;;;;;;;;;22.70;53.90;;;;;;1612099;73;1961;-65
2023/05/12 05:31:11;;;;;;;;;;;22.80;53.60;;;;;;1610503;72;1201;-64
2023/05/12 05:33:13;;;;;;;;;;;22.70;53.90;;;;;;1605808;72;1417;-66
2023/05/12 05:35:15;;;;;;;;;;;22.70;53.60;;;;;;1609131;72;797;-68
2023/05/12 05:37:18;;;;;;;;;;;22.70;53.70;;;;;;1611504;72;748;-65
2023/05/12 05:39:19;;;;;;;;;;;22.70;53.60;;;;;;1610669;72;794;-69
2023/05/12 05:41:22;;;;;;;;;;;22.70;53.40;;;;;;1615457;72;1163;-71
2023/05/12 05:43:24;;;;;;;;;;;22.70;53.40;;;;;;1605552;72;769;-69
2023/05/12 05:45:26;;;;;;;;;;;22.70;53.40;;;;;;1608349;72;766;-69
2023/05/12 05:47:28;;;;;;;;;;;22.70;53.40;;;;;;1609199;72;1407;-69
2023/05/12 05:49:30;;;;;;;;;;;22.70;53.30;;;;;;1608472;72;1934;-70
2023/05/12 05:51:32;;;;;;;;;;;22.80;53.00;;;;;;1610018;73;1175;-69
2023/05/12 05:53:34;;;;;;;;;;;22.70;53.10;;;;;;1619567;72;793;-69
2023/05/12 05:55:35;;;;;;;;;;;22.80;52.90;;;;;;1609468;72;734;-70
2023/05/12 05:57:37;;;;;;;;;;;22.80;52.70;;;;;;1608931;72;764;-70
2023/05/12 05:59:39;;;;;;;;;;;22.70;52.80;;;;;;1609588;72;756;-69
2023/05/12 06:01:41;;;;;;;;;;;22.70;52.80;;;;;;1608497;73;1449;-66
2023/05/12 06:03:43;;;;;;;;;;;22.80;52.70;;;;;;1613584;72;791;-69
2023/05/12 06:05:45;;;;;;;;;;;22.70;52.50;;;;;;1609677;72;665;-69
2023/05/12 06:07:47;;;;;;;;;;;22.70;52.60;;;;;;1609643;72;759;-69
2023/05/12 06:09:49;;;;;;;;;;;22.70;52.50;;;;;;1609590;73;1918;-70
2023/05/12 06:11:50;;;;;;;;;;;22.70;52.50;;;;;;1600944;72;1234;-70
2023/05/12 06:13:52;;;;;;;;;;;22.70;52.30;;;;;;1608876;72;806;-72
2023/05/12 06:15:54;;;;;;;;;;;22.70;52.10;;;;;;1603230;72;1418;-71
2023/05/12 06:17:56;;;;;;;;;;;22.60;51.80;;;;;;1605515;72;799;-72
2023/05/12 06:19:58;;;;;;;;;;;22.70;52.00;;;;;;1609767;73;763;-71
2023/05/12 06:22:00;;;;;;;;;;;22.60;51.70;;;;;;1609724;74;1124;-71
2023/05/12 06:24:02;;;;;;;;;;;22.60;51.80;;;;;;1608138;72;791;-71
2023/05/12 06:26:06;;;;;;;;;;;22.60;51.60;;;;;;1608187;72;807;-71
2023/05/12 06:28:07;;;;;;;;;;;22.60;51.50;;;;;;1608916;72;1062;-72
2023/05/12 06:30:10;;;;;;;;;;;22.60;51.10;;;;;;1610534;72;1941;-69
2023/05/12 06:32:12;;;;;;;;;;;22.50;51.30;;;;;;1609846;72;805;-72
2023/05/12 06:34:14;;;;;;;;;;;22.60;51.00;;;;;;1611866;73;736;-70
2023/05/12 06:36:15;;;;;;;;;;;22.60;50.70;;;;;;1608501;72;766;-71
2023/05/12 06:38:17;;;;;;;;;;;22.60;50.80;;;;;;1609663;72;794;-71
2023/05/12 06:40:20;;;;;;;;;;;22.60;50.70;;;;;;1608976;72;1196;-71
2023/05/12 06:42:22;;;;;;;;;;;22.60;50.60;;;;;;1610305;72;744;-71
2023/05/12 06:44:24;;;;;;;;;;;22.60;50.40;;;;;;1609990;72;1445;-71
2023/05/12 06:46:26;;;;;;;;;;;22.60;50.10;;;;;;1608763;72;766;-70
2023/05/12 06:48:27;;;;;;;;;;;22.60;50.20;;;;;;1602042;72;767;-71
2023/05/12 06:50:30;;;;;;;;;;;22.60;50.00;;;;;;1605752;72;1938;-72
2023/05/12 06:52:32;;;;;;;;;;;22.60;50.00;;;;;;1609462;73;775;-70
2023/05/12 06:54:33;;;;;;;;;;;22.60;49.70;;;;;;1609408;72;631;-71
2023/05/12 06:56:35;;;;;;;;;;;22.60;49.70;;;;;;1610227;72;757;-72
2023/05/12 06:58:37;;;;;;;;;;;22.60;49.50;;;;;;1609690;72;1449;-71
2023/05/12 07:00:39;;;;;;;;;;;22.60;49.70;;;;;;1610478;72;1183;-71
2023/05/12 07:02:41;;;;;;;;;;;22.60;49.60;;;;;;1610858;72;744;-70
2023/05/12 07:04:43;;;;;;;;;;;22.60;49.30;;;;;;1612810;72;798;-71
2023/05/12 07:06:45;;;;;;;;;;;22.60;49.30;;;;;;1601700;72;759;-71
2023/05/12 07:08:47;;;;;;;;;;;22.60;49.20;;;;;;1608641;72;751;-70
2023/05/12 07:10:48;;;;;;;;;;;22.60;49.00;;;;;;1607853;72;1942;-71
2023/05/12 07:12:50;;;;;;;;;;;22.60;49.10;;;;;;1611457;72;1345;-71
2023/05/12 07:14:52;;;;;;;;;;;22.70;49.00;;;;;;1610578;72;754;-69
2023/05/12 07:16:54;;;;;;;;;;;22.60;48.80;;;;;;1609032;72;796;-71
2023/05/12 07:18:56;;;;;;;;;;;22.60;48.90;;;;;;1607742;72;793;-71
2023/05/12 07:20:58;;;;;;;;;;;22.60;48.80;;;;;;1609686;72;1242;-71
2023/05/12 07:23:00;;;;;;;;;;;22.60;48.70;;;;;;1613564;72;779;-74
2023/05/12 07:25:02;;;;;;;;;;;22.60;48.50;;;;;;1606410;72;785;-70
2023/05/12 07:27:04;;;;;;;;;;;22.60;48.50;;;;;;1574579;74;1584;-70
2023/05/12 07:29:06;;;;;;;;;;;22.60;48.50;;;;;;1575371;74;765;-69
2023/05/12 07:31:08;;;;;;;;;;;22.60;48.40;;;;;;1576051;74;1923;-70
2023/05/12 07:33:10;;;;;;;;;;;22.60;48.40;;;;;;1568321;75;773;-69
2023/05/12 07:35:11;;;;;;;;;;;22.60;48.20;;;;;;1575720;74;786;-69
2023/05/12 07:37:13;;;;;;;;;;;22.60;48.20;;;;;;1574412;75;768;-69
2023/05/12 07:39:22;;;;;;;;;;;22.60;48.10;;;;;;1576156;75;1455;-69
2023/05/12 07:41:19;;;;;;;;;;;22.60;48.10;;;;;;1575508;74;1656;-66
2023/05/12 07:43:20;;;;;;;;;;;22.60;47.80;;;;;;1576825;74;809;-67
2023/05/12 07:45:23;;;;;;;;;;;22.60;47.90;;;;;;1576050;74;806;-68
2023/05/12 07:47:27;;;;;;;;;;;22.60;48.00;;;;;;1575929;75;753;-67
2023/05/12 07:49:29;;;;;;;;;;;22.60;48.10;;;;;;1572497;74;1645;-68
2023/05/12 07:51:30;;;;;;;;;;;22.60;47.90;;;;;;1549618;75;1943;-68
2023/05/12 07:53:32;;;;;;;;;;;22.60;47.80;;;;;;1553135;75;1319;-68
2023/05/12 07:55:34;;;;;;;;;;;22.50;47.80;;;;;;1546383;75;750;-68
2023/05/12 07:57:36;;;;;;;;;;;22.50;47.80;;;;;;1573694;75;757;-67
2023/05/12 07:59:39;;;;;;;;;;;22.50;47.60;;;;;;1569246;75;820;-68
2023/05/12 08:01:41;;;;;;;;;;;22.50;47.60;;;;;;1611624;72;1170;-67
2023/05/12 08:03:42;;;;;;;;;;;22.50;47.60;;;;;;1609105;72;746;-68
2023/05/12 08:05:44;;;;;;;;;;;22.50;47.60;;;;;;1596230;72;782;-68
2023/05/12 08:07:46;;;;;;;;;;;22.50;47.60;;;;;;1608745;72;1336;-68
2023/05/12 08:09:48;;;;;;;;;;;22.50;47.60;;;;;;1610145;72;1920;-68
2023/05/12 08:11:50;;;;;;;;;;;22.50;47.40;;;;;;1606059;72;1174;-67
2023/05/12 08:13:52;;;;;;;;;;;22.50;47.30;;;;;;1607325;73;715;-70
2023/05/12 08:15:54;;;;;;;;;;;22.40;47.30;;;;;;1605760;72;779;-67
2023/05/12 08:17:56;;;;;;;;;;;22.50;47.30;;;;;;1611470;72;801;-67
2023/05/12 08:19:58;;;;;;;;;;;22.40;47.20;;;;;;1609688;73;767;-68
2023/05/12 08:22:00;;;;;;;;;;;22.50;47.20;;;;;;1605482;73;1416;-68
2023/05/12 08:24:02;;;;;;;;;;;22.40;47.20;;;;;;1613973;72;736;-69
2023/05/12 08:26:04;;;;;;;;;;;22.50;47.20;;;;;;1608744;72;796;-68
2023/05/12 08:28:06;;;;;;;;;;;22.50;47.10;;;;;;1613528;72;734;-67
2023/05/12 08:30:08;;;;;;;;;;;22.40;47.00;;;;;;1607958;72;1924;-67
2023/05/12 08:32:10;;;;;;;;;;;22.40;47.00;;;;;;1571661;74;1206;-69
2023/05/12 08:34:12;;;;;;;;;;;22.50;47.10;;;;;;1567543;74;832;-68
2023/05/12 08:36:14;;;;;;;;;;;22.50;47.10;;;;;;1564916;75;1296;-68
2023/05/12 08:38:16;;;;;;;;;;;22.50;47.10;;;;;;1566391;74;768;-69
2023/05/12 08:40:19;;;;;;;;;;;22.40;46.70;;;;;;1566061;74;1180;-69
2023/05/12 08:42:32;;;;;;;;;;;22.50;46.80;;;;;;1548446;77;749;-67
2023/05/12 08:44:34;;;;;;;;;;;22.50;46.80;;;;;;1570141;75;1668;-71
2023/05/12 08:46:36;;;;;;;;;;;22.40;46.50;;;;;;1575735;74;690;-68
2023/05/12 08:48:39;;;;;;;;;;;22.50;46.50;;;;;;1565971;75;769;-69
2023/05/12 08:50:40;;;;;;;;;;;22.50;46.80;;;;;;1556034;76;1931;-67
2023/05/12 08:52:42;;;;;;;;;;;22.50;46.70;;;;;;1563539;76;768;-70
2023/05/12 08:54:44;;;;;;;;;;;22.40;46.30;;;;;;1554911;76;761;-68
2023/05/12 08:56:46;;;;;;;;;;;22.40;46.50;;;;;;1574312;74;738;-68
2023/05/12 08:58:48;;;;;;;;;;;22.40;46.40;;;;;;1564998;74;640;-69
2023/05/12 09:00:50;;;;;;;;;;;22.40;46.40;;;;;;1572442;74;1164;-69
2023/05/12 09:02:52;;;;;;;;;;;22.40;46.20;;;;;;1576549;75;751;-68
2023/05/12 09:04:54;;;;;;;;;;;22.40;46.30;;;;;;1577663;74;1448;-68
2023/05/12 09:06:57;;;;;;;;;;;22.50;46.50;;;;;;1576414;75;805;-69
2023/05/12 09:08:59;;;;;;;;;;;22.40;46.30;;;;;;1575073;75;782;-69
2023/05/12 09:11:00;;;;;;;;;;;22.50;46.40;;;;;;1576606;75;1950;-69
2023/05/12 09:13:03;;;;;;;;;;;22.50;46.20;;;;;;1576550;74;769;-68
2023/05/12 09:15:10;;;;;;;;;;;22.50;46.30;;;;;;1571810;74;777;-67
2023/05/12 09:17:11;;;;;;;;;;;22.40;46.10;;;;;;1579567;74;1835;-69
2023/05/12 09:19:12;;;;;;;;;;;22.40;46.10;;;;;;1576224;74;1428;-68
2023/05/12 09:21:14;;;;;;;;;;;22.50;46.20;;;;;;1576097;74;1223;-68
2023/05/12 09:23:17;;;;;;;;;;;22.40;46.10;;;;;;1576064;74;787;-68
2023/05/12 09:25:20;;;;;;;;;;;22.40;46.10;;;;;;1573490;74;746;-68
2023/05/12 09:27:25;;;;;;;;;;;22.40;46.00;;;;;;1570980;75;760;-71
2023/05/12 09:29:27;;;;;;;;;;;22.40;45.90;;;;;;1544287;75;615;-65
2023/05/12 09:31:29;;;;;;;;;;;22.40;45.60;;;;;;1561341;75;1933;-68
2023/05/12 09:33:31;;;;;;;;;;;22.30;45.90;;;;;;1548275;75;1413;-68
2023/05/12 09:35:34;;;;;;;;;;;22.40;46.00;;;;;;1578557;74;1264;-67
2023/05/12 09:37:36;;;;;;;;;;;22.40;45.80;;;;;;1606101;72;1069;-68
2023/05/12 09:39:38;;;;;;;;;;;22.40;45.90;;;;;;1609703;72;682;-67
2023/05/12 09:41:40;;;;;;;;;;;22.40;46.00;;;;;;1610874;72;1178;-68
2023/05/12 09:43:44;;;;;;;;;;;22.40;45.70;;;;;;1604367;73;759;-68
2023/05/12 09:45:48;;;;;;;;;;;22.40;45.80;;;;;;1607114;73;1077;-72
2023/05/12 09:47:50;;;;;;;;;;;22.30;45.80;;;;;;1607604;72;1142;-65
2023/05/12 09:49:52;;;;;;;;;;;22.40;45.70;;;;;;1612484;72;813;-65
2023/05/12 09:51:57;;;;;;;;;;;22.30;46.10;;;;;;1607458;72;1938;-67
2023/05/12 09:53:59;;;;;;;;;;;22.30;46.20;;;;;;1607852;72;1119;-65
2023/05/12 09:56:01;;;;;;;;;;;22.40;46.30;;;;;;1608462;72;1302;-65
2023/05/12 09:58:05;;;;;;;;;;;22.40;46.60;;;;;;1606981;72;1121;-66
2023/05/12 10:00:07;;;;;;;;;;;22.40;46.80;;;;;;1608685;72;1790;-66
2023/05/12 10:02:09;;;;;;;;;;;22.40;47.00;;;;;;1604239;72;1846;-66
2023/05/12 10:04:11;;;;;;;;;;;22.30;47.20;;;;;;1613124;72;1490;-65
2023/05/12 10:06:18;;;;;;;;;;;22.50;47.50;;;;;;1607837;72;1255;-65
2023/05/12 10:08:21;;;;;;;;;;;22.40;47.40;;;;;;1605372;72;1450;-66
2023/05/12 10:10:23;;;;;;;;;;;22.40;47.40;;;;;;1608781;72;1203;-66
2023/05/12 10:12:24;;;;;;;;;;;22.50;47.60;;;;;;1608703;72;1940;-66
2023/05/12 10:14:26;;;;;;;;;;;22.40;47.50;;;;;;1607893;72;1427;-65
2023/05/12 10:16:28;;;;;;;;;;;22.40;47.60;;;;;;1604583;72;1157;-65
2023/05/12 10:18:30;;;;;;;;;;;22.50;47.70;;;;;;1607976;72;1198;-67
2023/05/12 10:20:32;;;;;;;;;;;22.40;47.80;;;;;;1604415;72;1277;-66
2023/05/12 10:22:35;;;;;;;;;;;22.50;48.00;;;;;;1608504;72;1123;-68
2023/05/12 10:24:37;;;;;;;;;;;22.40;48.00;;;;;;1609718;72;1126;-67
2023/05/12 10:26:39;;;;;;;;;;;22.50;48.10;;;;;;1608294;72;1058;-66
2023/05/12 10:28:41;;;;;;;;;;;22.50;48.20;;;;;;1608681;72;1356;-68
2023/05/12 10:30:43;;;;;;;;;;;22.50;48.20;;;;;;1609550;72;1933;-66
2023/05/12 10:32:45;;;;;;;;;;;22.40;48.20;;;;;;1605315;72;1252;-67
2023/05/12 10:34:47;;;;;;;;;;;22.50;48.40;;;;;;1608208;72;1261;-68
2023/05/12 10:36:49;;;;;;;;;;;22.50;48.50;;;;;;1604929;72;1375;-66
2023/05/12 10:38:51;;;;;;;;;;;22.50;48.60;;;;;;1571895;74;1259;-65
2023/05/12 10:40:53;;;;;;;;;;;22.40;48.50;;;;;;1611756;72;1420;-65
2023/05/12 10:42:57;;;;;;;;;;;22.50;48.60;;;;;;1611282;72;1753;-64
2023/05/12 10:44:59;;;;;;;;;;;22.50;48.70;;;;;;1607264;72;1236;-67
2023/05/12 10:47:01;;;;;;;;;;;22.50;48.80;;;;;;1609607;72;1241;-66
2023/05/12 10:49:03;;;;;;;;;;;22.40;48.80;;;;;;1607888;72;1228;-65
2023/05/12 10:51:08;;;;;;;;;;;22.50;48.90;;;;;;1610497;72;1919;-66
2023/05/12 10:53:10;;;;;;;;;;;22.50;49.00;;;;;;1612166;72;1141;-64
2023/05/12 10:55:13;;;;;;;;;;;22.40;48.90;;;;;;1612051;72;1358;-65
2023/05/12 10:57:15;;;;;;;;;;;22.50;49.30;;;;;;1607798;72;1377;-67
2023/05/12 10:59:18;;;;;;;;;;;22.40;49.30;;;;;;1611941;72;1075;-67
2023/05/12 11:01:21;;;;;;;;;;;22.40;49.30;;;;;;1609657;72;1179;-65
2023/05/12 11:03:23;;;;;;;;;;;22.40;49.40;;;;;;1610682;72;1721;-65
2023/05/12 11:05:27;;;;;;;;;;;22.40;49.40;;;;;;1609982;72;1315;-66
2023/05/12 11:07:30;;;;;;;;;;;22.40;49.40;;;;;;1612735;72;1336;-65
2023/05/12 11:09:34;;;;;;;;;;;22.40;49.40;;;;;;1612138;72;1397;-66
2023/05/12 11:11:36;;;;;;;;;;;22.40;49.60;;;;;;1605970;72;1958;-67
2023/05/12 11:13:37;;;;;;;;;;;22.40;49.70;;;;;;1604599;72;1375;-65
2023/05/12 11:15:39;;;;;;;;;;;22.40;49.70;;;;;;1603657;72;1236;-66
2023/05/12 11:17:41;;;;;;;;;;;22.40;49.90;;;;;;1567218;74;1250;-65
2023/05/12 11:19:49;;;;;;;;;;;22.40;50.00;;;;;;1622322;72;1264;-66
2023/05/12 11:21:51;;;;;;;;;;;22.30;50.00;;;;;;1609616;72;1282;-65
2023/05/12 11:23:53;;;;;;;;;;;22.30;50.20;;;;;;1609436;72;1238;-65
2023/05/12 11:25:55;;;;;;;;;;;22.20;50.10;;;;;;1613604;72;1424;-65
2023/05/12 11:27:57;;;;;;;;;;;22.30;50.20;;;;;;1623254;72;1258;-66
2023/05/12 11:30:00;;;;;;;;;;;22.20;50.20;;;;;;1605166;72;1428;-66
2023/05/12 11:32:02;;;;;;;;;;;22.30;50.40;;;;;;1620412;72;1955;-66
2023/05/12 11:34:04;;;;;;;;;;;22.20;50.30;;;;;;1613518;72;1151;-65
2023/05/12 11:36:06;;;;;;;;;;;22.20;50.40;;;;;;1616806;72;1137;-66
2023/05/12 11:38:15;;;;;;;;;;;22.30;50.50;;;;;;1610106;72;1011;-65
2023/05/12 11:40:17;;;;;;;;;;;22.30;50.60;;;;;;1609893;72;1366;-65
2023/05/12 11:42:19;;;;;;;;;;;22.40;50.50;;;;;;1609166;72;1382;-64
2023/05/12 11:44:23;;;;;;;;;;;22.30;50.50;;;;;;1606303;72;1240;-65
2023/05/12 11:46:25;;;;;;;;;;;22.40;50.50;;;;;;1609923;72;1191;-64
2023/05/12 11:48:35;;;;;;;;;;;22.40;50.50;;;;;;1606499;73;1201;-70
2023/05/12 11:50:38;;;;;;;;;;;22.30;50.40;;;;;;1608863;72;1225;-65
2023/05/12 11:52:40;;;;;;;;;;;22.40;50.40;;;;;;1605699;72;1933;-65
2023/05/12 11:54:51;;;;;;;;;;;22.50;50.50;;;;;;1605925;72;1255;-66
2023/05/12 11:56:53;;;;;;;;;;;22.50;50.50;;;;;;1607707;72;1264;-69
2023/05/12 11:58:56;;;;;;;;;;;22.50;50.40;;;;;;1609251;72;1245;-68
2023/05/12 12:00:59;;;;;;;;;;;22.50;50.30;;;;;;1608721;72;1270;-67
2023/05/12 12:03:05;;;;;;;;;;;22.50;50.30;;;;;;1605664;72;1721;-71
2023/05/12 12:05:16;;;;;;;;;;;22.50;50.30;;;;;;1610832;72;1212;-66
2023/05/12 12:07:20;;;;;;;;;;;22.60;50.30;;;;;;1606899;72;1420;-66